Sherwood, MD

2:52 PM EST on January 30, 2015 (GMT -0500)
Annapolis Naval Academy | Change Station
CLOSE
Current Station
Airport
Location: Annapolis Naval Academy,
Elevation: 7 ft
Nearby Weather Stations
Active Advisory: Wind Advisory

Elev 7 ft 38.99 °N, 76.49 °W | Updated 58 minutes ago

Partly Cloudy
Partly Cloudy
38 °F
Feels Like 29 °F
N
15
Wind Variable Wind from WNW
Gusts 29 mph

Today
High -- | Low -- °F
--% Chance of Precip.
Yesterday
High -- | Low -- °F
Precip. -- in
7:13 AM 5:24 PM
Waxing Gibbous, 84% visible
Pressure 30.01 in
Visibility 10.0 miles
Clouds Scattered Clouds 4800 ft
Mostly Cloudy 6500 ft
Mostly Cloudy 8000 ft
Windchill 29 °F
Dew Point 20 °F
Humidity 48%
Rainfall 0.00 in
Snow Depth Not available.
UV 2 out of 12
Pollen .30 out of 12
Air Quality Not available.
Flu Activity Not available.
METAR KNAK 301854Z AUTO 30013G25KT 10SM SCT048 BKN065 BKN080 03/M07 A3000 RMK AO2 PK WND 29028/1833 SLP161 T00331067

More Conditions Fewer Conditions

Pressure 30.01 in
Visibility 10.0 miles
Clouds Scattered Clouds 4800 ft
Mostly Cloudy 6500 ft
Mostly Cloudy 8000 ft
Windchill 29 °F
Dew Point 20 °F
Humidity 48%
Rainfall 0.00 in
Snow Depth Not available.
UV 2 out of 12
Pollen .30 out of 12
Air Quality Not available.
Flu Activity Not available.
METAR KNAK 301854Z AUTO 30013G25KT 10SM SCT048 BKN065 BKN080 03/M07 A3000 RMK AO2 PK WND 29028/1833 SLP161 T00331067

More Conditions Fewer Conditions

10-Day Weather Forecast

Almanac

Astronomy

Jan. 30, 2015 Rise Set
Actual Time
Civil Twilight
Nautical Twilight
Astronomical Twilight
Moon
Length of Visible Light
Length of Day
Tomorrow will be .
, % of the Moon is Illuminated

Today's Extremes

State Highs State Lows

Community

WunderPhotos

Upload Photos

1,791,879 photos uploaded!

WunderBlogs® & News

Nearby

Air Quality

  Air Quality AQ Index Pollutant
Not available.

Snow Depth

Station Depth Elevation

Earthquake Activity

City Distance Mag. Time & Date
Minimum magnitude displayed is 2.5.

Coastal Water Temperatures

Place Temperature

Nearby Weather Stations